Portada
METAR-TAF:

METAR-TAF

Aeroports :

Calcuta, Índia

latitud: 22-39N, longitud: 088-27E, altitud: 4 m

Observació

L'informe es va fer fa 36 minuts, a les 15:30 UTC
Vent 8 kt del Sud
Temperatura 29°C
Humitat 94%
Pressió 1009 hPa
Visibilitat: 3200 m
Escasses núvols a una alçada de 2000 ft
Núvols disperses a una alçada de 10000 ft
calitja

METAR: VECC 241530Z 19008KT 3200 HZ FEW020 SCT100 29/28 Q1009 NOSIG

Hora: 21:36 (16:06 UTC)

Pronòstic

L'informe es va fer fa 2 hores i 6 minuts, a les 14:00 UTC
Pronòstic vàlid del 24 a les 15 UTC al 24 a les 24 UTC
Vent 6 kt del Sud/Sud-Oest
Visibilitat: 3200 m
Núvols disperses a una alçada de 2000 ft
Núvols disperses a una alçada de 10000 ft
calitja
Evolucionant progressivament
l' 24 a les 22 UTC al 24 a les 24 UTC
Visibilitat: 2500 m
calitja

TAF: VECC 241400Z 2415/2424 20006KT 3200 HZ SCT020 SCT100 BECMG 2422/2424 2500 HZ

Observacions i pronòstics meteorològics de més de 4000 aeroports (METAR i TAF).

Les estacions disponibles són els punts grocs i vermells al mapa.

Posi el ratolí al punt desitjat per veure el nom de l'estació.

Feu clic per veure les observacions i els pronòstics meteorològics.

Per canviar el mapa: feu clic els botons verds amb una creu de color negre per apropar; al botó verd amb un guió per allunyar la imatge; o en les fletxes verdes per a mapes adjacents.


METAR-TAF: